Melody — V7OM3 — position and weather

sailwx.info

Track history (hours):
 
Tides and Currents Weather Stations Pressure Air Temp Water Temp Dewpoint Dewpoint Depression Visibility Wind Speed Wind Dir Waves Ship Positions

Melody

Last reported at 2018-Feb-22 00:00 UTC. Time now 2018-Feb-24 08:14 UTC.
Position N 36°45' W 012°01'.

Length 183 m; draft 10.2 m.

Type: Tanker. MMSI: 538003113.

Date/timePositionNaut miles runAvg speedWind from/ knotsBaromVisibWave heightAir tempDewpointWater temp
2018-Feb-22 00:00N 36°45' W 012°01'3211.6
2018-Feb-21 21:16N 36°15' W 012°12'2111.8
2018-Feb-21 19:31N 35°55' W 012°19'311.8
2018-Feb-21 19:14N 35°51' W 012°20'45511.9
2018-Feb-20 04:56N 28°33' W 014°44'511.8
2018-Feb-20 04:29N 28°28' W 014°47'612.0
2018-Feb-20 04:00N 28°23' W 014°48'611.9
2018-Feb-20 03:30N 28°17' W 014°51'611.9
2018-Feb-20 03:00N 28°11' W 014°53'612.0
2018-Feb-20 02:30N 28°06' W 014°55'612.1
2018-Feb-20 01:59N 27°60' W 014°58'612.1
2018-Feb-20 01:30N 27°54' W 014°60'612.0
2018-Feb-20 01:00N 27°49' W 015°02'  
Track history (hours):
 
Tides and Currents Weather Stations Pressure Air Temp Water Temp Dewpoint Dewpoint Depression Visibility Wind Speed Wind Dir Waves Ship Positions

Melody

Last reported at 2018-Feb-22 00:00 UTC. Time now 2018-Feb-24 08:14 UTC.
Position N 36°45' W 012°01'.

Length 183 m; draft 10.2 m.

Type: Tanker. MMSI: 538003113.

Date/timePositionNaut miles runAvg speedWind from/ knotsBaromVisibWave heightAir tempDewpointWater temp
2018-Feb-22 00:00N 36°45' W 012°01'3211.6
2018-Feb-21 21:16N 36°15' W 012°12'2111.8
2018-Feb-21 19:31N 35°55' W 012°19'311.8
2018-Feb-21 19:14N 35°51' W 012°20'45511.9
2018-Feb-20 04:56N 28°33' W 014°44'511.8
2018-Feb-20 04:29N 28°28' W 014°47'612.0
2018-Feb-20 04:00N 28°23' W 014°48'611.9
2018-Feb-20 03:30N 28°17' W 014°51'611.9
2018-Feb-20 03:00N 28°11' W 014°53'612.0
2018-Feb-20 02:30N 28°06' W 014°55'612.1
2018-Feb-20 01:59N 27°60' W 014°58'612.1
2018-Feb-20 01:30N 27°54' W 014°60'612.0
2018-Feb-20 01:00N 27°49' W 015°02'  

Dump ship's entire track history